ěÝzenÝ letovÚho provozu ╚eskÚ republiky
Letiste: LKMT Aktualizace: 28.03.2023 19:00:39  UTC
 METAR LKMT 28.03. 19:00 ...
METAR LKMT 281900Z 28006KT 240V310 9999 FEW046 M00/M05 Q1023 NOSIG=
 TAF LKMT 28.03. 17:00 ...
TAF LKMT 281700Z 2818/2918 32012KT CAVOK      BECMG 2818/2820 21007KT      TEMPO 2910/2918 21012G55KT=